sensor_id;sensor_type;location;lat;lon;timestamp;P1;durP1;ratioP1;P2;durP2;ratioP2
61015;SDS011;46902;52.920;6.536;2023-03-12T00:00:42;8.15;;;4.55;;
61015;SDS011;46902;52.920;6.536;2023-03-12T00:03:08;10.27;;;4.43;;
61015;SDS011;46902;52.920;6.536;2023-03-12T00:05:35;9.88;;;4.18;;
61015;SDS011;46902;52.920;6.536;2023-03-12T00:08:02;9.10;;;4.15;;
61015;SDS011;46902;52.920;6.536;2023-03-12T00:10:28;7.07;;;3.80;;
61015;SDS011;46902;52.920;6.536;2023-03-12T00:12:54;8.70;;;4.15;;
61015;SDS011;46902;52.920;6.536;2023-03-12T00:15:20;6.82;;;3.70;;
61015;SDS011;46902;52.920;6.536;2023-03-12T00:17:45;5.18;;;3.30;;
61015;SDS011;46902;52.920;6.536;2023-03-12T00:20:11;7.13;;;3.88;;
61015;SDS011;46902;52.920;6.536;2023-03-12T00:22:37;7.50;;;4.10;;
61015;SDS011;46902;52.920;6.536;2023-03-12T00:25:04;5.55;;;3.70;;
61015;SDS011;46902;52.920;6.536;2023-03-12T00:27:31;6.78;;;3.67;;
61015;SDS011;46902;52.920;6.536;2023-03-12T00:29:56;9.07;;;4.32;;
61015;SDS011;46902;52.920;6.536;2023-03-12T00:32:22;6.80;;;3.95;;
61015;SDS011;46902;52.920;6.536;2023-03-12T00:34:51;8.00;;;3.92;;
61015;SDS011;46902;52.920;6.536;2023-03-12T00:37:17;8.73;;;4.43;;
61015;SDS011;46902;52.920;6.536;2023-03-12T00:39:43;7.28;;;4.00;;
61015;SDS011;46902;52.920;6.536;2023-03-12T00:42:08;6.43;;;3.97;;
61015;SDS011;46902;52.920;6.536;2023-03-12T00:44:34;11.80;;;4.10;;
61015;SDS011;46902;52.920;6.536;2023-03-12T00:47:00;6.35;;;3.92;;
61015;SDS011;46902;52.920;6.536;2023-03-12T00:49:25;6.50;;;4.30;;
61015;SDS011;46902;52.920;6.536;2023-03-12T00:51:51;6.60;;;4.03;;
61015;SDS011;46902;52.920;6.536;2023-03-12T00:54:18;6.65;;;3.80;;
61015;SDS011;46902;52.920;6.536;2023-03-12T00:56:44;8.00;;;4.55;;
61015;SDS011;46902;52.920;6.536;2023-03-12T00:59:11;7.05;;;4.05;;
61015;SDS011;46902;52.920;6.536;2023-03-12T01:01:37;7.05;;;3.88;;
61015;SDS011;46902;52.920;6.536;2023-03-12T01:04:02;7.72;;;4.28;;
61015;SDS011;46902;52.920;6.536;2023-03-12T01:06:28;9.27;;;4.47;;
61015;SDS011;46902;52.920;6.536;2023-03-12T01:08:54;8.50;;;3.90;;
61015;SDS011;46902;52.920;6.536;2023-03-12T01:11:19;6.43;;;4.13;;
61015;SDS011;46902;52.920;6.536;2023-03-12T01:13:46;9.70;;;4.55;;
61015;SDS011;46902;52.920;6.536;2023-03-12T01:16:12;5.32;;;3.45;;
61015;SDS011;46902;52.920;6.536;2023-03-12T01:18:37;7.35;;;3.55;;
61015;SDS011;46902;52.920;6.536;2023-03-12T01:21:03;7.05;;;3.53;;
61015;SDS011;46902;52.920;6.536;2023-03-12T01:23:29;7.13;;;3.67;;
61015;SDS011;46902;52.920;6.536;2023-03-12T01:25:55;8.07;;;3.30;;
61015;SDS011;46902;52.920;6.536;2023-03-12T01:28:21;10.68;;;3.65;;
61015;SDS011;46902;52.920;6.536;2023-03-12T01:30:48;6.63;;;4.07;;
61015;SDS011;46902;52.920;6.536;2023-03-12T01:33:14;8.85;;;3.65;;
61015;SDS011;46902;52.920;6.536;2023-03-12T01:35:40;8.73;;;3.38;;
61015;SDS011;46902;52.920;6.536;2023-03-12T01:38:07;6.20;;;3.40;;
61015;SDS011;46902;52.920;6.536;2023-03-12T01:40:36;6.70;;;3.33;;
61015;SDS011;46902;52.920;6.536;2023-03-12T01:43:47;7.43;;;3.67;;
61015;SDS011;46902;52.920;6.536;2023-03-12T01:45:50;5.82;;;3.50;;
61015;SDS011;46902;52.920;6.536;2023-03-12T01:48:43;9.25;;;4.25;;
61015;SDS011;46902;52.920;6.536;2023-03-12T01:51:12;7.55;;;3.60;;
61015;SDS011;46902;52.920;6.536;2023-03-12T01:53:40;4.88;;;3.10;;
61015;SDS011;46902;52.920;6.536;2023-03-12T01:56:09;10.35;;;3.75;;
61015;SDS011;46902;52.920;6.536;2023-03-12T01:58:36;7.53;;;3.63;;
61015;SDS011;46902;52.920;6.536;2023-03-12T02:01:04;8.05;;;3.20;;
61015;SDS011;46902;52.920;6.536;2023-03-12T02:03:30;9.02;;;3.55;;
61015;SDS011;46902;52.920;6.536;2023-03-12T02:05:59;9.40;;;3.33;;
61015;SDS011;46902;52.920;6.536;2023-03-12T02:08:30;10.45;;;3.92;;
61015;SDS011;46902;52.920;6.536;2023-03-12T02:11:01;7.57;;;3.78;;
61015;SDS011;46902;52.920;6.536;2023-03-12T02:13:26;7.68;;;4.10;;
61015;SDS011;46902;52.920;6.536;2023-03-12T02:15:52;7.45;;;3.72;;
61015;SDS011;46902;52.920;6.536;2023-03-12T02:18:18;10.18;;;4.10;;
61015;SDS011;46902;52.920;6.536;2023-03-12T02:26:07;9.18;;;4.28;;
61015;SDS011;46902;52.920;6.536;2023-03-12T02:28:35;6.57;;;3.58;;
61015;SDS011;46902;52.920;6.536;2023-03-12T02:31:08;11.02;;;4.00;;
61015;SDS011;46902;52.920;6.536;2023-03-12T02:33:36;8.57;;;3.75;;
61015;SDS011;46902;52.920;6.536;2023-03-12T02:36:02;8.18;;;4.43;;
61015;SDS011;46902;52.920;6.536;2023-03-12T02:41:04;6.90;;;3.95;;
61015;SDS011;46902;52.920;6.536;2023-03-12T02:43:48;8.45;;;4.30;;
61015;SDS011;46902;52.920;6.536;2023-03-12T02:46:22;9.00;;;4.40;;
61015;SDS011;46902;52.920;6.536;2023-03-12T02:48:48;7.95;;;4.20;;
61015;SDS011;46902;52.920;6.536;2023-03-12T02:51:14;14.63;;;4.00;;
61015;SDS011;46902;52.920;6.536;2023-03-12T02:53:39;9.65;;;4.10;;
61015;SDS011;46902;52.920;6.536;2023-03-12T02:56:05;10.40;;;4.72;;
61015;SDS011;46902;52.920;6.536;2023-03-12T02:58:31;6.40;;;3.55;;
61015;SDS011;46902;52.920;6.536;2023-03-12T03:00:57;8.80;;;4.20;;
61015;SDS011;46902;52.920;6.536;2023-03-12T03:03:23;7.90;;;3.95;;
61015;SDS011;46902;52.920;6.536;2023-03-12T03:05:48;7.43;;;3.67;;
61015;SDS011;46902;52.920;6.536;2023-03-12T03:08:14;7.30;;;3.53;;
61015;SDS011;46902;52.920;6.536;2023-03-12T03:10:39;9.25;;;3.70;;
61015;SDS011;46902;52.920;6.536;2023-03-12T03:13:05;7.10;;;3.67;;
61015;SDS011;46902;52.920;6.536;2023-03-12T03:15:31;8.95;;;3.20;;
61015;SDS011;46902;52.920;6.536;2023-03-12T03:17:56;7.60;;;4.05;;
61015;SDS011;46902;52.920;6.536;2023-03-12T03:20:22;7.07;;;3.97;;
61015;SDS011;46902;52.920;6.536;2023-03-12T03:22:50;9.10;;;3.28;;
61015;SDS011;46902;52.920;6.536;2023-03-12T03:25:15;9.15;;;4.00;;
61015;SDS011;46902;52.920;6.536;2023-03-12T03:27:42;7.95;;;4.05;;
61015;SDS011;46902;52.920;6.536;2023-03-12T03:30:08;10.05;;;3.53;;
61015;SDS011;46902;52.920;6.536;2023-03-12T03:32:34;7.30;;;3.60;;
61015;SDS011;46902;52.920;6.536;2023-03-12T03:35:00;10.23;;;3.33;;
61015;SDS011;46902;52.920;6.536;2023-03-12T03:37:26;9.55;;;3.90;;
61015;SDS011;46902;52.920;6.536;2023-03-12T03:39:51;9.05;;;3.85;;
61015;SDS011;46902;52.920;6.536;2023-03-12T03:42:17;8.00;;;3.67;;
61015;SDS011;46902;52.920;6.536;2023-03-12T03:44:43;7.50;;;3.67;;
61015;SDS011;46902;52.920;6.536;2023-03-12T03:47:08;9.32;;;3.90;;
61015;SDS011;46902;52.920;6.536;2023-03-12T03:49:34;8.65;;;4.00;;
61015;SDS011;46902;52.920;6.536;2023-03-12T03:51:59;8.88;;;3.72;;
61015;SDS011;46902;52.920;6.536;2023-03-12T03:54:25;9.30;;;3.90;;
61015;SDS011;46902;52.920;6.536;2023-03-12T03:56:51;11.05;;;4.43;;
61015;SDS011;46902;52.920;6.536;2023-03-12T03:59:16;8.90;;;4.05;;
61015;SDS011;46902;52.920;6.536;2023-03-12T04:01:42;7.60;;;3.95;;
61015;SDS011;46902;52.920;6.536;2023-03-12T04:04:07;16.52;;;4.10;;
61015;SDS011;46902;52.920;6.536;2023-03-12T04:06:33;8.02;;;3.75;;
61015;SDS011;46902;52.920;6.536;2023-03-12T04:08:59;7.90;;;3.60;;
61015;SDS011;46902;52.920;6.536;2023-03-12T04:11:24;10.15;;;3.63;;
61015;SDS011;46902;52.920;6.536;2023-03-12T04:13:50;8.95;;;3.92;;
61015;SDS011;46902;52.920;6.536;2023-03-12T04:16:16;12.20;;;3.63;;
61015;SDS011;46902;52.920;6.536;2023-03-12T04:18:42;9.63;;;3.38;;
61015;SDS011;46902;52.920;6.536;2023-03-12T04:21:09;6.05;;;4.05;;
61015;SDS011;46902;52.920;6.536;2023-03-12T04:23:35;10.32;;;4.80;;
61015;SDS011;46902;52.920;6.536;2023-03-12T04:26:02;9.20;;;3.97;;
61015;SDS011;46902;52.920;6.536;2023-03-12T04:28:28;11.15;;;4.03;;
61015;SDS011;46902;52.920;6.536;2023-03-12T04:30:55;7.93;;;4.30;;
61015;SDS011;46902;52.920;6.536;2023-03-12T04:33:26;7.97;;;3.63;;
61015;SDS011;46902;52.920;6.536;2023-03-12T04:35:53;9.02;;;3.35;;
61015;SDS011;46902;52.920;6.536;2023-03-12T04:38:23;9.32;;;3.83;;
61015;SDS011;46902;52.920;6.536;2023-03-12T04:40:56;9.30;;;3.65;;
61015;SDS011;46902;52.920;6.536;2023-03-12T04:43:23;12.55;;;4.60;;
61015;SDS011;46902;52.920;6.536;2023-03-12T04:45:48;8.43;;;4.40;;
61015;SDS011;46902;52.920;6.536;2023-03-12T04:48:14;8.63;;;3.70;;
61015;SDS011;46902;52.920;6.536;2023-03-12T04:50:39;8.35;;;3.40;;
61015;SDS011;46902;52.920;6.536;2023-03-12T04:53:05;10.40;;;3.78;;
61015;SDS011;46902;52.920;6.536;2023-03-12T04:55:31;9.25;;;3.70;;
61015;SDS011;46902;52.920;6.536;2023-03-12T04:57:56;10.43;;;4.15;;
61015;SDS011;46902;52.920;6.536;2023-03-12T05:00:22;6.13;;;3.20;;
61015;SDS011;46902;52.920;6.536;2023-03-12T05:02:47;8.82;;;3.40;;
61015;SDS011;46902;52.920;6.536;2023-03-12T05:05:13;6.32;;;3.15;;
61015;SDS011;46902;52.920;6.536;2023-03-12T05:07:38;7.65;;;3.85;;
61015;SDS011;46902;52.920;6.536;2023-03-12T05:10:04;7.85;;;3.25;;
61015;SDS011;46902;52.920;6.536;2023-03-12T05:12:30;7.00;;;3.50;;
61015;SDS011;46902;52.920;6.536;2023-03-12T05:14:56;9.70;;;3.88;;
61015;SDS011;46902;52.920;6.536;2023-03-12T05:17:21;8.10;;;3.33;;
61015;SDS011;46902;52.920;6.536;2023-03-12T05:19:47;7.90;;;3.63;;
61015;SDS011;46902;52.920;6.536;2023-03-12T05:22:12;7.95;;;3.33;;
61015;SDS011;46902;52.920;6.536;2023-03-12T05:24:38;10.30;;;4.25;;
61015;SDS011;46902;52.920;6.536;2023-03-12T05:27:04;6.70;;;3.40;;
61015;SDS011;46902;52.920;6.536;2023-03-12T05:29:32;8.75;;;3.55;;
61015;SDS011;46902;52.920;6.536;2023-03-12T05:31:59;11.77;;;3.83;;
61015;SDS011;46902;52.920;6.536;2023-03-12T05:34:26;7.90;;;3.92;;
61015;SDS011;46902;52.920;6.536;2023-03-12T05:36:54;6.68;;;3.00;;
61015;SDS011;46902;52.920;6.536;2023-03-12T05:39:20;10.52;;;3.80;;
61015;SDS011;46902;52.920;6.536;2023-03-12T05:41:46;8.10;;;3.72;;
61015;SDS011;46902;52.920;6.536;2023-03-12T05:44:12;8.43;;;3.72;;
61015;SDS011;46902;52.920;6.536;2023-03-12T05:46:40;7.55;;;3.97;;
61015;SDS011;46902;52.920;6.536;2023-03-12T05:49:06;7.43;;;3.60;;
61015;SDS011;46902;52.920;6.536;2023-03-12T05:51:32;10.32;;;3.63;;
61015;SDS011;46902;52.920;6.536;2023-03-12T05:53:57;10.25;;;4.05;;
61015;SDS011;46902;52.920;6.536;2023-03-12T05:56:23;8.60;;;3.63;;
61015;SDS011;46902;52.920;6.536;2023-03-12T05:58:49;6.57;;;3.65;;
61015;SDS011;46902;52.920;6.536;2023-03-12T06:01:17;8.38;;;3.45;;
61015;SDS011;46902;52.920;6.536;2023-03-12T06:03:45;10.63;;;3.78;;
61015;SDS011;46902;52.920;6.536;2023-03-12T06:06:11;8.02;;;3.67;;
61015;SDS011;46902;52.920;6.536;2023-03-12T06:08:38;10.57;;;4.15;;
61015;SDS011;46902;52.920;6.536;2023-03-12T06:11:04;7.82;;;4.43;;
61015;SDS011;46902;52.920;6.536;2023-03-12T06:13:30;10.30;;;4.55;;
61015;SDS011;46902;52.920;6.536;2023-03-12T06:16:06;7.38;;;4.10;;
61015;SDS011;46902;52.920;6.536;2023-03-12T06:18:33;10.32;;;4.03;;
61015;SDS011;46902;52.920;6.536;2023-03-12T06:21:06;7.50;;;4.30;;
61015;SDS011;46902;52.920;6.536;2023-03-12T06:23:36;12.55;;;4.47;;
61015;SDS011;46902;52.920;6.536;2023-03-12T06:26:02;11.50;;;4.18;;
61015;SDS011;46902;52.920;6.536;2023-03-12T06:28:28;7.68;;;4.03;;
61015;SDS011;46902;52.920;6.536;2023-03-12T06:30:54;12.55;;;4.80;;
61015;SDS011;46902;52.920;6.536;2023-03-12T06:33:20;7.35;;;3.92;;
61015;SDS011;46902;52.920;6.536;2023-03-12T06:35:45;9.02;;;4.10;;
61015;SDS011;46902;52.920;6.536;2023-03-12T06:38:12;9.40;;;4.35;;
61015;SDS011;46902;52.920;6.536;2023-03-12T06:40:37;8.65;;;4.50;;
61015;SDS011;46902;52.920;6.536;2023-03-12T06:43:03;10.20;;;4.43;;
61015;SDS011;46902;52.920;6.536;2023-03-12T06:45:28;11.00;;;4.57;;
61015;SDS011;46902;52.920;6.536;2023-03-12T06:47:54;11.48;;;4.32;;
61015;SDS011;46902;52.920;6.536;2023-03-12T06:50:20;9.35;;;4.28;;
61015;SDS011;46902;52.920;6.536;2023-03-12T06:52:45;8.00;;;4.53;;
61015;SDS011;46902;52.920;6.536;2023-03-12T06:55:11;12.45;;;4.32;;
61015;SDS011;46902;52.920;6.536;2023-03-12T06:57:36;7.65;;;4.05;;
61015;SDS011;46902;52.920;6.536;2023-03-12T07:00:02;9.25;;;4.30;;
61015;SDS011;46902;52.920;6.536;2023-03-12T07:02:29;11.48;;;4.88;;
61015;SDS011;46902;52.920;6.536;2023-03-12T07:04:54;10.82;;;4.50;;
61015;SDS011;46902;52.920;6.536;2023-03-12T07:07:20;11.40;;;5.15;;
61015;SDS011;46902;52.920;6.536;2023-03-12T07:09:45;9.77;;;4.93;;
61015;SDS011;46902;52.920;6.536;2023-03-12T07:12:11;9.73;;;4.45;;
61015;SDS011;46902;52.920;6.536;2023-03-12T07:14:37;11.05;;;4.75;;
61015;SDS011;46902;52.920;6.536;2023-03-12T07:17:02;9.50;;;4.80;;
61015;SDS011;46902;52.920;6.536;2023-03-12T07:19:28;10.07;;;5.35;;
61015;SDS011;46902;52.920;6.536;2023-03-12T07:21:54;12.52;;;4.95;;
61015;SDS011;46902;52.920;6.536;2023-03-12T07:24:20;10.77;;;5.72;;
61015;SDS011;46902;52.920;6.536;2023-03-12T07:26:46;18.13;;;5.60;;
61015;SDS011;46902;52.920;6.536;2023-03-12T07:29:11;9.82;;;5.18;;
61015;SDS011;46902;52.920;6.536;2023-03-12T07:31:37;11.45;;;5.85;;
61015;SDS011;46902;52.920;6.536;2023-03-12T07:34:03;11.20;;;5.10;;
61015;SDS011;46902;52.920;6.536;2023-03-12T07:36:30;11.25;;;5.40;;
61015;SDS011;46902;52.920;6.536;2023-03-12T07:38:56;10.65;;;5.97;;
61015;SDS011;46902;52.920;6.536;2023-03-12T07:41:22;10.23;;;5.60;;
61015;SDS011;46902;52.920;6.536;2023-03-12T07:43:47;12.30;;;6.22;;
61015;SDS011;46902;52.920;6.536;2023-03-12T07:46:13;10.77;;;5.45;;
61015;SDS011;46902;52.920;6.536;2023-03-12T07:48:39;10.85;;;5.40;;
61015;SDS011;46902;52.920;6.536;2023-03-12T07:51:05;11.27;;;5.82;;
61015;SDS011;46902;52.920;6.536;2023-03-12T07:53:30;10.63;;;5.13;;
61015;SDS011;46902;52.920;6.536;2023-03-12T07:55:56;9.88;;;5.50;;
61015;SDS011;46902;52.920;6.536;2023-03-12T07:58:21;11.57;;;4.85;;
61015;SDS011;46902;52.920;6.536;2023-03-12T08:00:47;13.95;;;5.53;;
61015;SDS011;46902;52.920;6.536;2023-03-12T08:03:13;12.18;;;5.25;;
61015;SDS011;46902;52.920;6.536;2023-03-12T08:05:39;12.90;;;5.40;;
61015;SDS011;46902;52.920;6.536;2023-03-12T08:08:04;9.50;;;5.28;;
61015;SDS011;46902;52.920;6.536;2023-03-12T08:10:30;8.88;;;5.30;;
61015;SDS011;46902;52.920;6.536;2023-03-12T08:12:56;8.20;;;5.22;;
61015;SDS011;46902;52.920;6.536;2023-03-12T08:15:21;11.75;;;5.50;;
61015;SDS011;46902;52.920;6.536;2023-03-12T08:17:47;9.48;;;5.22;;
61015;SDS011;46902;52.920;6.536;2023-03-12T08:20:12;8.93;;;5.13;;
61015;SDS011;46902;52.920;6.536;2023-03-12T08:22:39;9.05;;;5.43;;
61015;SDS011;46902;52.920;6.536;2023-03-12T08:25:05;15.40;;;6.18;;
61015;SDS011;46902;52.920;6.536;2023-03-12T08:27:31;10.35;;;4.85;;
61015;SDS011;46902;52.920;6.536;2023-03-12T08:29:57;15.57;;;5.55;;
61015;SDS011;46902;52.920;6.536;2023-03-12T08:32:23;9.13;;;5.07;;
61015;SDS011;46902;52.920;6.536;2023-03-12T08:34:49;9.45;;;5.07;;
61015;SDS011;46902;52.920;6.536;2023-03-12T08:37:14;11.10;;;5.00;;
61015;SDS011;46902;52.920;6.536;2023-03-12T08:39:40;9.93;;;5.15;;
61015;SDS011;46902;52.920;6.536;2023-03-12T08:42:06;10.82;;;4.40;;
61015;SDS011;46902;52.920;6.536;2023-03-12T08:44:31;9.60;;;4.45;;
61015;SDS011;46902;52.920;6.536;2023-03-12T08:46:57;11.73;;;5.22;;
61015;SDS011;46902;52.920;6.536;2023-03-12T08:49:23;11.60;;;4.85;;
61015;SDS011;46902;52.920;6.536;2023-03-12T08:51:49;9.13;;;4.65;;
61015;SDS011;46902;52.920;6.536;2023-03-12T08:54:18;12.10;;;5.57;;
61015;SDS011;46902;52.920;6.536;2023-03-12T08:56:48;11.70;;;5.60;;
61015;SDS011;46902;52.920;6.536;2023-03-12T08:59:15;8.05;;;4.55;;
61015;SDS011;46902;52.920;6.536;2023-03-12T09:01:42;7.40;;;4.18;;
61015;SDS011;46902;52.920;6.536;2023-03-12T09:04:08;8.70;;;4.55;;
61015;SDS011;46902;52.920;6.536;2023-03-12T09:06:33;8.90;;;4.55;;
61015;SDS011;46902;52.920;6.536;2023-03-12T09:08:59;9.32;;;4.50;;
61015;SDS011;46902;52.920;6.536;2023-03-12T09:11:32;10.02;;;4.22;;
61015;SDS011;46902;52.920;6.536;2023-03-12T09:13:59;8.60;;;4.60;;
61015;SDS011;46902;52.920;6.536;2023-03-12T09:16:25;7.78;;;4.43;;
61015;SDS011;46902;52.920;6.536;2023-03-12T09:18:51;11.23;;;5.50;;
61015;SDS011;46902;52.920;6.536;2023-03-12T09:21:17;12.93;;;5.55;;
61015;SDS011;46902;52.920;6.536;2023-03-12T09:23:42;13.70;;;5.72;;
61015;SDS011;46902;52.920;6.536;2023-03-12T09:26:11;10.68;;;5.70;;
61015;SDS011;46902;52.920;6.536;2023-03-12T09:28:38;12.98;;;6.50;;
61015;SDS011;46902;52.920;6.536;2023-03-12T09:31:04;9.27;;;6.13;;
61015;SDS011;46902;52.920;6.536;2023-03-12T09:33:30;8.30;;;5.80;;
61015;SDS011;46902;52.920;6.536;2023-03-12T09:35:58;10.60;;;6.43;;
61015;SDS011;46902;52.920;6.536;2023-03-12T09:38:25;12.98;;;6.53;;
61015;SDS011;46902;52.920;6.536;2023-03-12T09:40:51;13.15;;;6.40;;
61015;SDS011;46902;52.920;6.536;2023-03-12T09:43:20;12.18;;;6.53;;
61015;SDS011;46902;52.920;6.536;2023-03-12T09:45:51;13.30;;;6.72;;
61015;SDS011;46902;52.920;6.536;2023-03-12T09:48:23;12.80;;;6.60;;
61015;SDS011;46902;52.920;6.536;2023-03-12T09:51:07;13.43;;;6.93;;
61015;SDS011;46902;52.920;6.536;2023-03-12T09:53:45;16.42;;;7.57;;
61015;SDS011;46902;52.920;6.536;2023-03-12T09:56:16;10.23;;;7.28;;
61015;SDS011;46902;52.920;6.536;2023-03-12T09:58:43;12.50;;;7.47;;
61015;SDS011;46902;52.920;6.536;2023-03-12T10:06:56;12.02;;;7.35;;
61015;SDS011;46902;52.920;6.536;2023-03-12T10:09:35;12.18;;;8.32;;
61015;SDS011;46902;52.920;6.536;2023-03-12T10:12:08;13.93;;;8.40;;
61015;SDS011;46902;52.920;6.536;2023-03-12T10:15:41;13.25;;;8.25;;
61015;SDS011;46902;52.920;6.536;2023-03-12T10:20:45;11.70;;;8.05;;
61015;SDS011;46902;52.920;6.536;2023-03-12T10:25:50;15.63;;;8.52;;
61015;SDS011;46902;52.920;6.536;2023-03-12T10:28:17;15.57;;;9.27;;
61015;SDS011;46902;52.920;6.536;2023-03-12T10:31:00;10.75;;;8.48;;
61015;SDS011;46902;52.920;6.536;2023-03-12T10:34:07;13.27;;;8.07;;
61015;SDS011;46902;52.920;6.536;2023-03-12T10:38:57;14.20;;;9.23;;
61015;SDS011;46902;52.920;6.536;2023-03-12T10:41:24;14.50;;;9.55;;
61015;SDS011;46902;52.920;6.536;2023-03-12T10:43:53;13.20;;;9.13;;
61015;SDS011;46902;52.920;6.536;2023-03-12T10:51:53;15.50;;;9.95;;
61015;SDS011;46902;52.920;6.536;2023-03-12T10:54:20;13.10;;;10.02;;
61015;SDS011;46902;52.920;6.536;2023-03-12T10:56:50;17.80;;;10.07;;
61015;SDS011;46902;52.920;6.536;2023-03-12T10:59:20;15.85;;;10.60;;
61015;SDS011;46902;52.920;6.536;2023-03-12T11:01:48;15.55;;;10.52;;
61015;SDS011;46902;52.920;6.536;2023-03-12T11:07:05;14.75;;;11.10;;
61015;SDS011;46902;52.920;6.536;2023-03-12T11:09:43;16.63;;;11.52;;
61015;SDS011;46902;52.920;6.536;2023-03-12T11:12:22;17.08;;;11.43;;
61015;SDS011;46902;52.920;6.536;2023-03-12T11:14:49;16.77;;;12.48;;
61015;SDS011;46902;52.920;6.536;2023-03-12T11:17:19;18.70;;;12.32;;
61015;SDS011;46902;52.920;6.536;2023-03-12T11:19:49;15.95;;;11.85;;
61015;SDS011;46902;52.920;6.536;2023-03-12T11:22:25;16.85;;;12.50;;
61015;SDS011;46902;52.920;6.536;2023-03-12T11:24:59;15.77;;;12.98;;
61015;SDS011;46902;52.920;6.536;2023-03-12T11:27:35;18.10;;;13.65;;
61015;SDS011;46902;52.920;6.536;2023-03-12T11:30:13;17.20;;;13.35;;
61015;SDS011;46902;52.920;6.536;2023-03-12T11:32:47;20.08;;;13.65;;
61015;SDS011;46902;52.920;6.536;2023-03-12T11:35:15;27.02;;;15.27;;
61015;SDS011;46902;52.920;6.536;2023-03-12T11:46:06;27.98;;;16.98;;
61015;SDS011;46902;52.920;6.536;2023-03-12T11:56:33;25.92;;;17.38;;
61015;SDS011;46902;52.920;6.536;2023-03-12T11:59:08;24.88;;;17.75;;
61015;SDS011;46902;52.920;6.536;2023-03-12T12:05:02;31.77;;;18.20;;
61015;SDS011;46902;52.920;6.536;2023-03-12T12:13:51;22.77;;;17.08;;
61015;SDS011;46902;52.920;6.536;2023-03-12T12:16:50;24.77;;;17.77;;
61015;SDS011;46902;52.920;6.536;2023-03-12T12:25:11;26.63;;;18.52;;
61015;SDS011;46902;52.920;6.536;2023-03-12T12:30:21;25.38;;;18.00;;
61015;SDS011;46902;52.920;6.536;2023-03-12T12:35:57;31.83;;;19.92;;
61015;SDS011;46902;52.920;6.536;2023-03-12T12:38:34;32.10;;;20.20;;
61015;SDS011;46902;52.920;6.536;2023-03-12T12:43:58;33.72;;;20.10;;
61015;SDS011;46902;52.920;6.536;2023-03-12T12:46:32;31.25;;;19.10;;
61015;SDS011;46902;52.920;6.536;2023-03-12T12:52:02;26.42;;;16.45;;
61015;SDS011;46902;52.920;6.536;2023-03-12T12:54:54;24.52;;;15.88;;
61015;SDS011;46902;52.920;6.536;2023-03-12T12:59:57;28.85;;;17.30;;
61015;SDS011;46902;52.920;6.536;2023-03-12T13:02:39;24.55;;;16.58;;
61015;SDS011;46902;52.920;6.536;2023-03-12T13:05:24;24.25;;;16.10;;
61015;SDS011;46902;52.920;6.536;2023-03-12T13:08:08;31.73;;;17.27;;
61015;SDS011;46902;52.920;6.536;2023-03-12T13:14:13;27.90;;;16.40;;
61015;SDS011;46902;52.920;6.536;2023-03-12T13:16:45;32.05;;;16.73;;
61015;SDS011;46902;52.920;6.536;2023-03-12T13:24:18;30.98;;;19.10;;
61015;SDS011;46902;52.920;6.536;2023-03-12T13:29:42;39.63;;;19.20;;
61015;SDS011;46902;52.920;6.536;2023-03-12T13:32:08;39.47;;;19.08;;
61015;SDS011;46902;52.920;6.536;2023-03-12T13:40:53;40.90;;;20.63;;
61015;SDS011;46902;52.920;6.536;2023-03-12T13:48:19;46.80;;;19.02;;
61015;SDS011;46902;52.920;6.536;2023-03-12T13:50:57;44.25;;;20.33;;
61015;SDS011;46902;52.920;6.536;2023-03-12T13:53:32;52.47;;;17.58;;
61015;SDS011;46902;52.920;6.536;2023-03-12T13:56:01;36.25;;;15.13;;
61015;SDS011;46902;52.920;6.536;2023-03-12T13:58:30;44.97;;;15.95;;
61015;SDS011;46902;52.920;6.536;2023-03-12T14:01:03;45.10;;;15.88;;
61015;SDS011;46902;52.920;6.536;2023-03-12T14:03:40;55.10;;;14.00;;
61015;SDS011;46902;52.920;6.536;2023-03-12T14:06:15;53.22;;;13.85;;
61015;SDS011;46902;52.920;6.536;2023-03-12T14:17:09;47.95;;;11.77;;
61015;SDS011;46902;52.920;6.536;2023-03-12T14:19:44;43.42;;;11.20;;
61015;SDS011;46902;52.920;6.536;2023-03-12T14:22:13;40.30;;;11.85;;
61015;SDS011;46902;52.920;6.536;2023-03-12T14:24:41;51.40;;;12.57;;
61015;SDS011;46902;52.920;6.536;2023-03-12T14:27:20;45.88;;;11.43;;
61015;SDS011;46902;52.920;6.536;2023-03-12T14:30:09;48.70;;;10.15;;
61015;SDS011;46902;52.920;6.536;2023-03-12T14:32:41;44.75;;;9.85;;
61015;SDS011;46902;52.920;6.536;2023-03-12T14:35:22;37.67;;;8.70;;
61015;SDS011;46902;52.920;6.536;2023-03-12T14:40:37;40.10;;;8.60;;
61015;SDS011;46902;52.920;6.536;2023-03-12T14:43:27;47.80;;;9.25;;
61015;SDS011;46902;52.920;6.536;2023-03-12T14:46:02;36.03;;;8.52;;
61015;SDS011;46902;52.920;6.536;2023-03-12T14:48:30;42.72;;;8.35;;
61015;SDS011;46902;52.920;6.536;2023-03-12T14:50:57;37.08;;;7.70;;
61015;SDS011;46902;52.920;6.536;2023-03-12T14:53:29;51.28;;;9.60;;
61015;SDS011;46902;52.920;6.536;2023-03-12T14:58:31;39.92;;;8.02;;
61015;SDS011;46902;52.920;6.536;2023-03-12T15:00:59;43.20;;;8.27;;
61015;SDS011;46902;52.920;6.536;2023-03-12T15:03:29;40.60;;;8.13;;
61015;SDS011;46902;52.920;6.536;2023-03-12T15:06:00;38.08;;;8.60;;
61015;SDS011;46902;52.920;6.536;2023-03-12T15:08:26;39.00;;;7.90;;
61015;SDS011;46902;52.920;6.536;2023-03-12T15:10:53;47.35;;;8.32;;
61015;SDS011;46902;52.920;6.536;2023-03-12T15:13:21;39.95;;;8.73;;
61015;SDS011;46902;52.920;6.536;2023-03-12T15:15:50;38.63;;;8.65;;
61015;SDS011;46902;52.920;6.536;2023-03-12T15:18:18;48.67;;;8.30;;
61015;SDS011;46902;52.920;6.536;2023-03-12T15:20:52;47.42;;;7.45;;
61015;SDS011;46902;52.920;6.536;2023-03-12T15:23:20;40.28;;;7.65;;
61015;SDS011;46902;52.920;6.536;2023-03-12T15:25:47;43.33;;;7.25;;
61015;SDS011;46902;52.920;6.536;2023-03-12T15:28:31;46.70;;;8.43;;
61015;SDS011;46902;52.920;6.536;2023-03-12T15:31:05;57.78;;;9.07;;
61015;SDS011;46902;52.920;6.536;2023-03-12T15:33:36;44.20;;;7.85;;
61015;SDS011;46902;52.920;6.536;2023-03-12T15:38:44;49.22;;;9.35;;
61015;SDS011;46902;52.920;6.536;2023-03-12T15:41:17;38.78;;;8.13;;
61015;SDS011;46902;52.920;6.536;2023-03-12T15:43:54;46.72;;;8.02;;
61015;SDS011;46902;52.920;6.536;2023-03-12T15:46:22;47.95;;;8.50;;
61015;SDS011;46902;52.920;6.536;2023-03-12T15:48:49;47.20;;;8.45;;
61015;SDS011;46902;52.920;6.536;2023-03-12T15:51:34;42.23;;;7.00;;
61015;SDS011;46902;52.920;6.536;2023-03-12T15:54:05;40.13;;;8.07;;
61015;SDS011;46902;52.920;6.536;2023-03-12T15:56:49;50.08;;;7.95;;
61015;SDS011;46902;52.920;6.536;2023-03-12T16:01:58;40.95;;;7.43;;
61015;SDS011;46902;52.920;6.536;2023-03-12T16:04:24;39.42;;;7.68;;
61015;SDS011;46902;52.920;6.536;2023-03-12T16:06:50;48.60;;;8.20;;
61015;SDS011;46902;52.920;6.536;2023-03-12T16:09:18;48.83;;;7.82;;
61015;SDS011;46902;52.920;6.536;2023-03-12T16:11:44;43.15;;;8.43;;
61015;SDS011;46902;52.920;6.536;2023-03-12T16:14:15;44.13;;;8.25;;
61015;SDS011;46902;52.920;6.536;2023-03-12T16:16:55;48.45;;;8.43;;
61015;SDS011;46902;52.920;6.536;2023-03-12T16:19:21;47.70;;;9.45;;
61015;SDS011;46902;52.920;6.536;2023-03-12T16:21:47;41.55;;;8.18;;
61015;SDS011;46902;52.920;6.536;2023-03-12T16:24:13;50.50;;;8.23;;
61015;SDS011;46902;52.920;6.536;2023-03-12T16:26:48;41.13;;;8.15;;
61015;SDS011;46902;52.920;6.536;2023-03-12T16:29:17;40.70;;;8.07;;
61015;SDS011;46902;52.920;6.536;2023-03-12T16:31:44;38.83;;;7.43;;
61015;SDS011;46902;52.920;6.536;2023-03-12T16:34:15;45.65;;;7.57;;
61015;SDS011;46902;52.920;6.536;2023-03-12T16:36:41;39.10;;;7.38;;
61015;SDS011;46902;52.920;6.536;2023-03-12T16:39:08;50.10;;;8.38;;
61015;SDS011;46902;52.920;6.536;2023-03-12T16:41:34;49.70;;;7.53;;
61015;SDS011;46902;52.920;6.536;2023-03-12T16:44:00;43.17;;;8.05;;